Aérodrome :
LOGIN :

S'inscrire | Disclaimer

   EN    FR    IT 

 










Légende :    VFR   VFR Marginal   IFR   IFR Intensif   IFR Très Intensif
Visi : 
Plafond : 
>= 8 km
>= 3000ft
5 à 8 km
1000 à 3000 ft
1500m à 5 km
500 à 1000 ft
800 à 1500m
200 à 500 ft
< 800m
< 200 ft
Symboles :   Orages  Brouillard  Fortes neiges  Fortes précipitations  Vent > 20 kt
SIGMETs :   Divers  Orages  Givrage  Turbulence  Onde Orograph.  Cendres Volcan.






- Altitude de l'aérodrome : 18 ft


LIPC - Cervia AFB Ravenna

DERNIER METAR :
  • 261655Z 24010KT 9999 -RA FEW020CB BKN035 06/05 Q0999 RMK OVC VIS MIN 9999 WIND THR11 24009KT WIND THR29 25008KT BLU

METARs EXPIRÉS :
  • 261555Z 29015KT 9999 -RA FEW020CB BKN030 07/05 Q0999
  • 261455Z 23012KT 9999 -RA FEW020CB BKN030 09/05 Q0998

TAF TAF LIPC
Valide du 26 à 15h jusqu'au 27 à 00h UTC


261400Z 2615/2624 25015KT 9999 SCT030 SCT050
TEMPO 2615/2624 26015G30KT
TEMPO 26015/2619 5000 TSRA FEW030CB BKN040



MET'MAP, la Météo Aéronautique d'un coup d'oeil ! - Copyright ORBIFLY Décembre 2007 - Disclaimer

ORBIFLY MET'MAP TEAM :

Programmation & Développement : Alexandra Zaïnal
Sur une idée originale de : Baudouin d'Aumeries
Assistance à la programmation : Marc-Olivier Méhu
Soutien technique & logistique : Manuel Goepfert

Contact : metmap@orbifly.com




SOURCES & CREDITS :

   NOAA